createdAt,value
2019-01-31T00:00:45.150Z,75.67
2019-01-31T00:03:30.417Z,68.07
2019-01-31T00:06:13.785Z,73.87
2019-01-31T00:09:05.870Z,71.20
2019-01-31T00:12:22.219Z,63.23
2019-01-31T00:15:18.493Z,76.83
2019-01-31T00:18:08.368Z,77.50
2019-01-31T00:20:58.282Z,72.37
2019-01-31T00:23:42.368Z,74.80
2019-01-31T00:26:25.369Z,76.60
2019-01-31T00:29:05.573Z,71.07
2019-01-31T00:31:54.868Z,71.43
2019-01-31T00:34:40.356Z,69.90
2019-01-31T00:37:29.280Z,72.43
2019-01-31T00:40:36.773Z,73.33
2019-01-31T00:43:40.655Z,76.73
2019-01-31T00:46:43.454Z,69.20
2019-01-31T00:49:47.385Z,70.37
2019-01-31T00:53:01.324Z,78.10
2019-01-31T00:56:02.677Z,70.57
2019-01-31T00:58:45.974Z,65.07
2019-01-31T01:01:43.809Z,68.07
2019-01-31T01:04:31.126Z,81.47
2019-01-31T01:07:12.864Z,63.97
2019-01-31T01:09:51.972Z,74.67
2019-01-31T01:12:50.187Z,69.60
2019-01-31T01:15:59.068Z,70.33
2019-01-31T01:18:41.422Z,64.67
2019-01-31T01:21:27.644Z,69.37
2019-01-31T01:24:05.084Z,69.60
2019-01-31T01:26:41.913Z,63.77
2019-01-31T01:29:58.729Z,70.10
2019-01-31T01:33:04.337Z,64.23
2019-01-31T01:36:04.843Z,66.93
2019-01-31T01:39:00.856Z,61.93
2019-01-31T01:41:47.517Z,64.23
2019-01-31T01:45:00.053Z,63.17
2019-01-31T01:48:12.189Z,59.33
2019-01-31T01:51:10.233Z,73.53
2019-01-31T01:54:20.476Z,66.67
2019-01-31T01:57:04.825Z,65.20
2019-01-31T02:00:33.636Z,68.17
2019-01-31T02:03:13.214Z,76.17
2019-01-31T02:05:57.556Z,65.50
2019-01-31T02:09:07.189Z,65.53
2019-01-31T02:11:54.959Z,63.27
2019-01-31T02:14:55.101Z,65.07
2019-01-31T02:18:00.901Z,67.50
2019-01-31T02:21:06.063Z,60.77
2019-01-31T02:24:04.710Z,64.40
2019-01-31T02:27:16.556Z,61.33
2019-01-31T02:30:02.220Z,59.13
2019-01-31T02:33:23.714Z,68.67
2019-01-31T02:36:10.865Z,61.73
2019-01-31T02:39:26.573Z,54.80
2019-01-31T02:42:25.643Z,58.97
2019-01-31T02:45:17.638Z,59.63
2019-01-31T02:48:06.721Z,48.87
2019-01-31T02:50:57.221Z,60.23
2019-01-31T02:53:58.631Z,57.10
2019-01-31T02:56:57.278Z,60.40
2019-01-31T02:59:53.363Z,55.60
2019-01-31T03:03:05.004Z,59.53
2019-01-31T03:05:50.617Z,67.03
2019-01-31T03:09:02.968Z,53.27
2019-01-31T03:11:57.778Z,59.63
2019-01-31T03:14:33.360Z,63.03
2019-01-31T03:17:37.510Z,44.60
2019-01-31T03:20:31.562Z,52.17
2019-01-31T03:23:34.257Z,51.97
2019-01-31T03:27:03.469Z,59.13
2019-01-31T03:30:25.881Z,57.47
2019-01-31T03:33:11.060Z,55.50
2019-01-31T03:36:08.109Z,49.13
2019-01-31T03:38:55.672Z,48.77
2019-01-31T03:41:51.093Z,50.97
2019-01-31T03:44:54.185Z,53.63
2019-01-31T03:48:12.772Z,56.97
2019-01-31T03:50:56.705Z,47.53
2019-01-31T03:53:54.415Z,48.27
2019-01-31T03:56:55.959Z,48.77
2019-01-31T03:59:44.908Z,52.23
2019-01-31T04:02:42.790Z,50.80
2019-01-31T04:05:45.178Z,53.00
2019-01-31T04:08:16.825Z,52.77
2019-01-31T04:10:48.468Z,51.70
2019-01-31T04:13:20.114Z,48.00
2019-01-31T04:15:51.755Z,49.63
2019-01-31T04:18:23.386Z,44.27
2019-01-31T04:20:55.017Z,43.90
2019-01-31T04:23:26.760Z,43.40
2019-01-31T04:25:58.377Z,49.73
2019-01-31T04:28:30.771Z,47.43
2019-01-31T04:31:02.657Z,45.50
2019-01-31T04:33:34.289Z,45.27
2019-01-31T04:36:06.045Z,45.87
2019-01-31T04:38:37.708Z,45.80
2019-01-31T04:41:09.460Z,47.40
2019-01-31T04:43:41.193Z,45.70
2019-01-31T04:46:12.842Z,42.50
2019-01-31T04:48:44.477Z,48.37
2019-01-31T04:51:16.134Z,43.23
2019-01-31T04:53:47.866Z,42.37
2019-01-31T04:56:19.481Z,47.43
2019-01-31T04:58:51.120Z,55.27
2019-01-31T05:01:22.863Z,46.40
2019-01-31T05:03:54.614Z,45.83
2019-01-31T05:06:26.322Z,41.70
2019-01-31T05:08:57.978Z,42.57
2019-01-31T05:11:29.592Z,49.00
2019-01-31T05:14:01.333Z,43.87
2019-01-31T05:16:32.970Z,40.50
2019-01-31T05:19:04.606Z,43.00
2019-01-31T05:21:36.296Z,36.30
2019-01-31T05:24:08.052Z,46.77
2019-01-31T05:26:39.690Z,41.80
2019-01-31T05:29:12.887Z,41.13
2019-01-31T05:31:45.016Z,41.13
2019-01-31T05:34:16.652Z,40.17
2019-01-31T05:36:48.288Z,38.73
2019-01-31T05:39:20.005Z,39.77
2019-01-31T05:41:51.642Z,43.67
2019-01-31T05:44:23.629Z,34.40
2019-01-31T05:46:55.965Z,53.13
2019-01-31T05:49:29.934Z,35.73
2019-01-31T05:52:01.573Z,32.80
2019-01-31T05:54:33.243Z,33.00
2019-01-31T05:57:04.857Z,33.57
2019-01-31T05:59:36.501Z,35.10
2019-01-31T06:02:08.124Z,36.63
2019-01-31T06:04:39.777Z,34.03
2019-01-31T06:07:11.603Z,26.27
2019-01-31T06:09:43.264Z,33.40
2019-01-31T06:12:14.893Z,27.07
2019-01-31T06:14:46.541Z,30.87
2019-01-31T06:17:20.526Z,28.97
2019-01-31T06:19:52.165Z,22.13
2019-01-31T06:22:25.103Z,33.17
2019-01-31T06:24:56.815Z,28.73
2019-01-31T06:27:28.528Z,33.37
2019-01-31T06:30:00.200Z,29.77
2019-01-31T06:32:31.914Z,27.77
2019-01-31T06:35:04.287Z,29.57
2019-01-31T06:37:35.941Z,24.60
2019-01-31T06:40:10.106Z,29.30
2019-01-31T06:42:41.745Z,24.27
2019-01-31T06:45:15.505Z,32.87
2019-01-31T06:47:47.543Z,24.80
2019-01-31T06:50:19.322Z,23.73
2019-01-31T06:52:51.056Z,23.03
2019-01-31T06:55:22.794Z,26.47
2019-01-31T06:57:54.425Z,23.50
2019-01-31T07:00:26.065Z,24.93
2019-01-31T07:02:57.697Z,25.67
2019-01-31T07:05:29.324Z,25.33
2019-01-31T07:08:00.948Z,19.33
2019-01-31T07:10:32.689Z,27.47
2019-01-31T07:13:04.330Z,26.47
2019-01-31T07:15:36.064Z,28.23
2019-01-31T07:18:07.737Z,24.27
2019-01-31T07:20:39.483Z,26.13
2019-01-31T07:23:11.209Z,22.37
2019-01-31T07:25:42.844Z,25.40
2019-01-31T07:28:14.500Z,26.07
2019-01-31T07:30:46.145Z,23.50
2019-01-31T07:33:17.777Z,22.20
2019-01-31T07:35:52.205Z,22.83
2019-01-31T07:38:24.344Z,30.63
2019-01-31T07:40:56.004Z,24.10
2019-01-31T07:43:27.650Z,26.33
2019-01-31T07:45:59.300Z,28.40
2019-01-31T07:48:30.925Z,22.27
2019-01-31T07:51:03.552Z,21.77
2019-01-31T07:53:35.277Z,26.43
2019-01-31T07:56:06.917Z,21.93
2019-01-31T07:58:42.031Z,23.13
2019-01-31T08:01:14.065Z,23.00
2019-01-31T08:03:45.720Z,23.13
2019-01-31T08:06:17.373Z,24.90
2019-01-31T08:08:49.010Z,23.07
2019-01-31T08:11:20.638Z,18.67
2019-01-31T08:13:52.277Z,22.23
2019-01-31T08:16:24.313Z,26.03
2019-01-31T08:18:55.953Z,23.53
2019-01-31T08:21:36.516Z,24.83
2019-01-31T08:24:09.686Z,17.63
2019-01-31T08:26:41.478Z,19.47
2019-01-31T08:29:13.141Z,17.87
2019-01-31T08:31:44.779Z,23.20
2019-01-31T08:34:16.409Z,20.97
2019-01-31T08:36:48.061Z,20.70
2019-01-31T08:39:19.704Z,21.57
2019-01-31T08:41:51.393Z,20.40
2019-01-31T08:44:23.020Z,20.77
2019-01-31T08:46:54.665Z,18.30
2019-01-31T08:49:26.311Z,21.07
2019-01-31T08:51:57.959Z,23.70
2019-01-31T08:54:29.633Z,18.30
2019-01-31T08:57:01.299Z,16.73
2019-01-31T08:59:32.925Z,14.10
2019-01-31T09:02:04.689Z,18.47
2019-01-31T09:04:36.311Z,14.80
2019-01-31T09:07:07.957Z,10.93
2019-01-31T09:09:39.592Z,13.77
2019-01-31T09:12:15.353Z,12.97
2019-01-31T09:14:44.777Z,14.43
2019-01-31T09:17:17.256Z,11.60
2019-01-31T09:19:48.918Z,18.83
2019-01-31T09:22:28.795Z,14.00
2019-01-31T09:25:37.183Z,17.47
2019-01-31T09:28:52.072Z,14.33
2019-01-31T09:31:50.581Z,10.43
2019-01-31T09:34:35.196Z,12.57
2019-01-31T09:37:50.856Z,14.13
2019-01-31T09:40:56.853Z,17.50
2019-01-31T09:44:05.305Z,12.77
2019-01-31T09:46:51.679Z,11.10
2019-01-31T09:49:52.900Z,12.93
2019-01-31T09:52:49.474Z,10.23
2019-01-31T09:55:46.977Z,11.07
2019-01-31T09:58:47.730Z,23.20
2019-01-31T10:01:53.658Z,11.00
2019-01-31T10:05:03.013Z,8.90
2019-01-31T10:08:10.640Z,11.57
2019-01-31T10:11:26.110Z,10.13
2019-01-31T10:14:50.785Z,9.53
2019-01-31T10:17:52.968Z,11.23
2019-01-31T10:20:49.346Z,19.43
2019-01-31T10:23:45.760Z,18.10
2019-01-31T10:26:39.269Z,18.90
2019-01-31T10:29:34.989Z,13.27
2019-01-31T10:32:47.961Z,13.27
2019-01-31T10:35:31.062Z,15.97
2019-01-31T10:38:28.396Z,27.93
2019-01-31T10:41:43.706Z,9.57
2019-01-31T10:44:34.191Z,10.10
2019-01-31T10:48:05.653Z,14.90
2019-01-31T10:50:46.495Z,13.20
2019-01-31T10:53:49.612Z,21.30
2019-01-31T10:56:59.149Z,15.97
2019-01-31T11:00:16.222Z,14.43
2019-01-31T11:03:13.614Z,10.03
2019-01-31T11:06:21.816Z,8.83
2019-01-31T11:09:31.092Z,24.90
2019-01-31T11:13:00.251Z,15.60
2019-01-31T11:15:59.004Z,13.83
2019-01-31T11:18:44.033Z,9.33
2019-01-31T11:22:12.736Z,17.13
2019-01-31T11:25:01.873Z,7.87
2019-01-31T11:27:55.214Z,11.00
2019-01-31T11:30:41.077Z,8.27
2019-01-31T11:33:33.202Z,7.57
2019-01-31T11:36:26.730Z,38.03
2019-01-31T11:39:23.604Z,13.47
2019-01-31T11:42:17.411Z,18.53
2019-01-31T11:45:21.660Z,12.93
2019-01-31T11:48:12.436Z,12.33
2019-01-31T11:51:17.705Z,12.57
2019-01-31T11:54:02.575Z,11.60
2019-01-31T11:56:47.465Z,11.80
2019-01-31T11:59:19.116Z,10.00
2019-01-31T12:01:50.877Z,10.93
2019-01-31T12:04:22.679Z,8.53
2019-01-31T12:06:54.312Z,14.60
2019-01-31T12:09:25.949Z,26.50
2019-01-31T12:11:57.703Z,22.93
2019-01-31T12:14:29.342Z,10.53
2019-01-31T12:17:01.090Z,8.93
2019-01-31T12:19:32.718Z,11.10
2019-01-31T12:22:04.550Z,18.93
2019-01-31T12:24:36.275Z,26.47
2019-01-31T12:27:08.116Z,21.77
2019-01-31T12:29:39.752Z,8.47
2019-01-31T12:32:11.387Z,15.63
2019-01-31T12:34:43.400Z,12.87
2019-01-31T12:37:15.173Z,13.20
2019-01-31T12:39:46.857Z,10.70
2019-01-31T12:42:18.486Z,15.67
2019-01-31T12:44:50.137Z,12.37
2019-01-31T12:47:21.885Z,11.30
2019-01-31T12:49:53.513Z,6.43
2019-01-31T12:52:25.174Z,7.13
2019-01-31T12:54:56.810Z,27.37
2019-01-31T12:57:28.461Z,8.00
2019-01-31T13:00:00.184Z,8.10
2019-01-31T13:02:31.837Z,13.37
2019-01-31T13:05:04.687Z,7.13
2019-01-31T13:07:36.322Z,10.57
2019-01-31T13:10:08.186Z,8.00
2019-01-31T13:12:48.392Z,12.43
2019-01-31T13:15:14.105Z,15.47
2019-01-31T13:17:45.961Z,11.20
2019-01-31T13:20:19.670Z,23.07
2019-01-31T13:22:53.399Z,6.43
2019-01-31T13:25:26.533Z,29.57
2019-01-31T13:27:58.320Z,17.90
2019-01-31T13:30:29.932Z,19.63
2019-01-31T13:33:01.761Z,12.57
2019-01-31T13:35:33.442Z,22.00
2019-01-31T13:38:05.309Z,6.67
2019-01-31T13:40:36.961Z,14.13
2019-01-31T13:43:08.737Z,13.40
2019-01-31T13:45:40.553Z,7.63
2019-01-31T13:48:13.971Z,17.30
2019-01-31T13:50:45.706Z,19.80
2019-01-31T13:53:17.517Z,30.00
2019-01-31T13:55:49.260Z,23.37
2019-01-31T13:58:20.903Z,7.10
2019-01-31T14:00:52.547Z,6.03
2019-01-31T14:03:24.221Z,10.90
2019-01-31T14:05:55.849Z,6.10
2019-01-31T14:08:27.484Z,8.13
2019-01-31T14:10:59.112Z,5.40
2019-01-31T14:13:30.765Z,5.87
2019-01-31T14:16:02.690Z,36.80
2019-01-31T14:18:34.345Z,28.37
2019-01-31T14:21:06.670Z,28.83
2019-01-31T14:23:38.316Z,12.53
2019-01-31T14:26:09.934Z,23.57
2019-01-31T14:28:41.564Z,8.00
2019-01-31T14:31:13.168Z,26.20
2019-01-31T14:33:44.805Z,23.30
2019-01-31T14:36:16.440Z,9.80
2019-01-31T14:38:48.149Z,17.33
2019-01-31T14:41:19.842Z,5.50
2019-01-31T14:43:51.497Z,15.10
2019-01-31T14:46:23.137Z,13.77
2019-01-31T14:48:54.807Z,12.23
2019-01-31T14:51:26.424Z,7.20
2019-01-31T14:53:58.099Z,17.83
2019-01-31T14:56:29.726Z,11.93
2019-01-31T14:59:01.369Z,6.00
2019-01-31T15:01:33.013Z,9.17
2019-01-31T15:04:04.792Z,12.63
2019-01-31T15:06:37.342Z,8.67
2019-01-31T15:09:09.064Z,26.17
2019-01-31T15:11:40.728Z,6.33
2019-01-31T15:14:12.385Z,15.13
2019-01-31T15:16:44.056Z,7.50
2019-01-31T15:19:15.753Z,8.43
2019-01-31T15:21:47.399Z,8.47
2019-01-31T15:24:19.139Z,6.67
2019-01-31T15:26:50.889Z,22.10
2019-01-31T15:29:22.570Z,11.37
2019-01-31T15:31:54.424Z,10.87
2019-01-31T15:34:26.069Z,15.27
2019-01-31T15:36:57.753Z,14.27
2019-01-31T15:39:29.425Z,5.87
2019-01-31T15:42:01.099Z,10.77
2019-01-31T15:44:42.790Z,7.40
2019-01-31T15:47:06.419Z,6.60
2019-01-31T15:49:38.158Z,5.20
2019-01-31T15:52:09.809Z,12.10
2019-01-31T15:54:41.490Z,8.57
2019-01-31T15:57:16.668Z,30.47
2019-01-31T15:59:46.775Z,21.67
2019-01-31T16:02:18.626Z,17.57
2019-01-31T16:04:50.269Z,8.93
2019-01-31T16:07:22.037Z,13.87
2019-01-31T16:09:53.707Z,30.07
2019-01-31T16:12:25.411Z,36.67
2019-01-31T16:14:57.064Z,27.33
2019-01-31T16:17:28.793Z,16.10
2019-01-31T16:20:00.433Z,15.10
2019-01-31T16:22:32.198Z,18.20
2019-01-31T16:25:04.483Z,5.43
2019-01-31T16:27:36.236Z,11.77
2019-01-31T16:30:09.786Z,16.40
2019-01-31T16:32:41.638Z,22.70
2019-01-31T16:35:13.404Z,8.63
2019-01-31T16:37:45.666Z,16.40
2019-01-31T16:40:17.420Z,11.17
2019-01-31T16:42:49.080Z,13.07
2019-01-31T16:45:21.913Z,18.43
2019-01-31T16:47:53.565Z,29.83
2019-01-31T16:50:25.710Z,15.83
2019-01-31T16:52:57.536Z,16.00
2019-01-31T16:55:29.266Z,20.10
2019-01-31T16:58:01.094Z,17.93
2019-01-31T17:00:32.956Z,19.83
2019-01-31T17:03:05.363Z,20.93
2019-01-31T17:05:39.275Z,24.27
2019-01-31T17:08:11.028Z,23.20
2019-01-31T17:10:42.658Z,24.07
2019-01-31T17:13:14.298Z,35.43
2019-01-31T17:15:45.985Z,20.43
2019-01-31T17:18:17.754Z,25.70
2019-01-31T17:20:49.479Z,22.83
2019-01-31T17:23:21.113Z,12.80
2019-01-31T17:25:52.749Z,17.50
2019-01-31T17:28:24.385Z,18.60
2019-01-31T17:30:56.038Z,20.47
2019-01-31T17:33:27.696Z,19.93
2019-01-31T17:35:59.325Z,20.90
2019-01-31T17:38:33.079Z,24.10
2019-01-31T17:41:07.394Z,29.40
2019-01-31T17:43:39.106Z,25.63
2019-01-31T17:46:11.678Z,21.67
2019-01-31T17:48:44.097Z,24.27
2019-01-31T17:51:19.501Z,25.10
2019-01-31T17:53:51.389Z,36.00
2019-01-31T17:56:23.062Z,27.10
2019-01-31T17:58:54.730Z,23.33
2019-01-31T18:01:26.380Z,29.20
2019-01-31T18:03:58.061Z,25.60
2019-01-31T18:06:29.742Z,31.60
2019-01-31T18:09:01.414Z,24.70
2019-01-31T18:11:33.246Z,24.90
2019-01-31T18:14:05.503Z,28.93
2019-01-31T18:16:37.131Z,29.37
2019-01-31T18:19:08.762Z,23.60
2019-01-31T18:21:40.609Z,21.60
2019-01-31T18:24:12.297Z,36.13
2019-01-31T18:26:43.964Z,28.80
2019-01-31T18:29:15.644Z,27.63
2019-01-31T18:31:49.726Z,26.23
2019-01-31T18:34:21.377Z,26.33
2019-01-31T18:36:53.082Z,27.17
2019-01-31T18:39:24.738Z,31.30
2019-01-31T18:41:56.574Z,25.37
2019-01-31T18:44:28.208Z,26.10
2019-01-31T18:46:59.887Z,26.30
2019-01-31T18:49:31.566Z,27.00
2019-01-31T18:52:03.304Z,22.37
2019-01-31T18:54:34.957Z,29.73
2019-01-31T18:57:06.581Z,29.57
2019-01-31T18:59:38.248Z,22.33
2019-01-31T19:02:10.310Z,24.80
2019-01-31T19:04:41.943Z,36.30
2019-01-31T19:07:13.833Z,33.10
2019-01-31T19:09:45.579Z,28.57
2019-01-31T19:12:17.232Z,28.00
2019-01-31T19:14:48.856Z,34.93
2019-01-31T19:17:20.514Z,28.97
2019-01-31T19:19:52.153Z,31.30
2019-01-31T19:22:25.725Z,38.10
2019-01-31T19:24:57.452Z,33.57
2019-01-31T19:27:29.233Z,36.47
2019-01-31T19:30:00.994Z,38.03
2019-01-31T19:32:32.638Z,38.20
2019-01-31T19:35:06.745Z,39.93
2019-01-31T19:37:38.471Z,42.90
2019-01-31T19:40:13.052Z,42.47
2019-01-31T19:42:44.719Z,41.07
2019-01-31T19:45:25.130Z,40.70
2019-01-31T19:47:56.883Z,49.07
2019-01-31T19:50:28.950Z,43.73
2019-01-31T19:53:00.712Z,47.90
2019-01-31T19:55:32.777Z,51.20
2019-01-31T19:58:04.960Z,47.50
2019-01-31T20:00:36.813Z,50.00
2019-01-31T20:03:08.782Z,44.10
2019-01-31T20:05:40.538Z,52.73
2019-01-31T20:08:12.282Z,51.63
2019-01-31T20:10:44.036Z,55.50
2019-01-31T20:13:15.695Z,63.63
2019-01-31T20:15:47.358Z,57.00
2019-01-31T20:18:19.064Z,59.23
2019-01-31T20:20:50.729Z,62.03
2019-01-31T20:23:22.500Z,68.40
2019-01-31T20:25:54.187Z,63.80
2019-01-31T20:28:25.874Z,64.70
2019-01-31T20:30:57.553Z,75.00
2019-01-31T20:33:30.138Z,71.50
2019-01-31T20:36:01.783Z,66.87
2019-01-31T20:38:33.422Z,73.47
2019-01-31T20:41:05.450Z,65.83
2019-01-31T20:43:37.134Z,75.53
2019-01-31T20:46:08.810Z,76.83
2019-01-31T20:48:40.462Z,70.40
2019-01-31T20:51:12.839Z,76.73
2019-01-31T20:53:44.610Z,74.47
2019-01-31T20:56:16.265Z,68.80
2019-01-31T20:58:47.905Z,73.27
2019-01-31T21:01:19.545Z,76.33
2019-01-31T21:03:51.183Z,74.53
2019-01-31T21:06:22.833Z,71.10
2019-01-31T21:08:54.462Z,74.80
2019-01-31T21:11:26.112Z,76.20
2019-01-31T21:13:57.757Z,76.13
2019-01-31T21:16:29.638Z,76.30
2019-01-31T21:19:01.376Z,78.33
2019-01-31T21:21:33.039Z,79.63
2019-01-31T21:24:04.770Z,85.53
2019-01-31T21:26:36.431Z,93.97
2019-01-31T21:29:08.070Z,85.50
2019-01-31T21:31:39.717Z,81.57
2019-01-31T21:34:11.365Z,81.80
2019-01-31T21:36:43.030Z,87.10
2019-01-31T21:39:14.654Z,86.97
2019-01-31T21:41:46.325Z,93.07
2019-01-31T21:44:17.961Z,93.97
2019-01-31T21:46:49.620Z,89.37
2019-01-31T21:49:21.274Z,96.87
2019-01-31T21:51:52.908Z,95.87
2019-01-31T21:54:24.544Z,95.13
2019-01-31T21:56:56.295Z,92.73
2019-01-31T21:59:27.920Z,95.33
2019-01-31T22:01:59.586Z,105.13
2019-01-31T22:04:31.346Z,100.10
2019-01-31T22:07:03.234Z,88.87
2019-01-31T22:09:34.865Z,91.77
2019-01-31T22:12:06.496Z,111.13
2019-01-31T22:14:38.125Z,104.53
2019-01-31T22:17:14.831Z,116.10
2019-01-31T22:19:43.293Z,92.57
2019-01-31T22:22:14.941Z,116.60
2019-01-31T22:24:46.586Z,110.33
2019-01-31T22:27:18.221Z,100.37
2019-01-31T22:29:49.878Z,114.20
2019-01-31T22:32:21.528Z,103.40
2019-01-31T22:34:53.157Z,107.20
2019-01-31T22:37:24.794Z,115.27
2019-01-31T22:39:56.442Z,113.33
2019-01-31T22:42:28.362Z,110.13
2019-01-31T22:45:00.008Z,109.07
2019-01-31T22:47:31.741Z,90.67
2019-01-31T22:50:04.536Z,107.90
2019-01-31T22:52:36.381Z,105.33
2019-01-31T22:55:08.634Z,108.23
2019-01-31T22:57:41.990Z,107.83
2019-01-31T23:00:28.165Z,110.93
2019-01-31T23:02:59.933Z,104.53
2019-01-31T23:05:31.541Z,121.67
2019-01-31T23:08:03.405Z,116.50
2019-01-31T23:10:35.046Z,113.37
2019-01-31T23:13:06.684Z,75.60
2019-01-31T23:15:38.306Z,80.50
2019-01-31T23:18:11.841Z,110.17
2019-01-31T23:20:44.372Z,105.60
2019-01-31T23:23:16.206Z,67.73
2019-01-31T23:25:47.833Z,129.43
2019-01-31T23:28:19.479Z,114.87
2019-01-31T23:30:51.096Z,117.93
2019-01-31T23:33:22.849Z,120.37
2019-01-31T23:35:54.496Z,124.37
2019-01-31T23:38:26.125Z,120.37
2019-01-31T23:40:57.769Z,101.50
2019-01-31T23:43:29.432Z,118.83
2019-01-31T23:46:01.150Z,110.37
2019-01-31T23:48:32.885Z,119.03
2019-01-31T23:51:04.708Z,120.70
2019-01-31T23:53:36.347Z,122.37
2019-01-31T23:56:08.060Z,111.47
2019-01-31T23:58:40.102Z,85.47
